createdAt,value
2017-03-20T00:00:14.065Z,10.23
2017-03-20T00:01:22.954Z,10.23
2017-03-20T00:02:32.501Z,10.2
2017-03-20T00:03:42.080Z,10.18
2017-03-20T00:04:51.627Z,10.25
2017-03-20T00:06:01.971Z,10.18
2017-03-20T00:07:10.862Z,10.18
2017-03-20T00:08:20.419Z,10.11
2017-03-20T00:09:30.289Z,10.12
2017-03-20T00:10:39.831Z,10.29
2017-03-20T00:11:48.976Z,10.17
2017-03-20T00:12:57.868Z,10.18
2017-03-20T00:14:07.090Z,10.17
2017-03-20T00:15:16.631Z,10.18
2017-03-20T00:16:25.527Z,10.18
2017-03-20T00:17:35.217Z,10.14
2017-03-20T00:18:45.101Z,10.17
2017-03-20T00:19:54.655Z,10.2
2017-03-20T00:21:03.548Z,10.17
2017-03-20T00:22:13.092Z,10.17
2017-03-20T00:23:23.108Z,10.2
2017-03-20T00:24:32.651Z,10.18
2017-03-20T00:25:42.196Z,10.18
2017-03-20T00:26:51.517Z,10.25
2017-03-20T00:28:00.411Z,10.32
2017-03-20T00:29:09.454Z,10.18
2017-03-20T00:30:18.994Z,10.2
2017-03-20T00:31:27.886Z,10.25
2017-03-20T00:32:37.433Z,10.17
2017-03-20T00:33:46.988Z,10.2
2017-03-20T00:34:56.351Z,10.33
2017-03-20T00:36:05.895Z,10.23
2017-03-20T00:37:15.116Z,10.32
2017-03-20T00:38:24.990Z,10.2
2017-03-20T00:39:34.210Z,10.2
2017-03-20T00:40:43.765Z,10.2
2017-03-20T00:41:52.981Z,10.2
2017-03-20T00:43:02.529Z,10.2
2017-03-20T00:44:12.081Z,10.26
2017-03-20T00:45:20.973Z,10.27
2017-03-20T00:46:30.191Z,10.22
2017-03-20T00:47:39.729Z,10.22
2017-03-20T00:48:48.638Z,10.27
2017-03-20T00:49:58.186Z,10.15
2017-03-20T00:51:07.075Z,10.18
2017-03-20T00:52:16.771Z,10.2
2017-03-20T00:53:25.996Z,10.17
2017-03-20T00:54:35.870Z,10.14
2017-03-20T00:55:44.764Z,10.15
2017-03-20T00:56:53.975Z,10.22
2017-03-20T00:58:03.252Z,10.22
2017-03-20T00:59:12.799Z,10.26
2017-03-20T01:00:22.342Z,10.23
2017-03-20T01:01:31.558Z,10.18
2017-03-20T01:02:40.772Z,10.15
2017-03-20T01:03:50.037Z,10.2
2017-03-20T01:04:58.936Z,10.17
2017-03-20T01:06:07.830Z,10.25
2017-03-20T01:07:17.379Z,10.33
2017-03-20T01:08:26.602Z,10.18
2017-03-20T01:09:36.726Z,10.23
2017-03-20T01:10:45.941Z,10.18
2017-03-20T01:11:54.837Z,10.17
2017-03-20T01:13:04.383Z,10.27
2017-03-20T01:14:13.924Z,10.18
2017-03-20T01:15:23.467Z,10.25
2017-03-20T01:16:32.368Z,10.2
2017-03-20T01:17:41.590Z,10.17
2017-03-20T01:18:51.468Z,10.2
2017-03-20T01:20:01.338Z,10.2
2017-03-20T01:21:11.132Z,10.26
2017-03-20T01:22:20.023Z,10.15
2017-03-20T01:23:29.565Z,10.2
2017-03-20T01:24:39.120Z,10.14
2017-03-20T01:25:48.015Z,10.22
2017-03-20T01:26:57.055Z,10.2
2017-03-20T01:28:06.927Z,10.22
2017-03-20T01:29:16.796Z,10.12
2017-03-20T01:30:26.670Z,10.26
2017-03-20T01:31:35.598Z,10.26
2017-03-20T01:32:44.871Z,10.26
2017-03-20T01:33:54.418Z,10.22
2017-03-20T01:35:03.968Z,10.22
2017-03-20T01:36:13.183Z,10.18
2017-03-20T01:37:22.403Z,10.25
2017-03-20T01:38:32.902Z,10.26
2017-03-20T01:39:42.774Z,10.29
2017-03-20T01:40:51.995Z,10.23
2017-03-20T01:42:01.542Z,10.17
2017-03-20T01:43:12.064Z,10.22
2017-03-20T01:44:22.240Z,10.26
2017-03-20T01:45:31.784Z,10.17
2017-03-20T01:46:40.680Z,10.26
2017-03-20T01:47:50.224Z,10.23
2017-03-20T01:49:00.095Z,10.18
2017-03-20T01:50:09.794Z,10.17
2017-03-20T01:51:19.660Z,10.23
2017-03-20T01:52:28.550Z,10.17
2017-03-20T01:53:37.773Z,10.18
2017-03-20T01:54:47.322Z,10.22
2017-03-20T01:55:57.440Z,10.23
2017-03-20T01:57:06.652Z,10.17
2017-03-20T01:58:16.528Z,10.25
2017-03-20T01:59:25.750Z,10.2
2017-03-20T02:00:35.627Z,10.14
2017-03-20T02:01:45.572Z,10.18
2017-03-20T02:02:54.787Z,10.29
2017-03-20T02:04:04.662Z,10.2
2017-03-20T02:05:13.557Z,10.23
2017-03-20T02:06:22.779Z,10.23
2017-03-20T02:07:32.255Z,10.23
2017-03-20T02:08:41.157Z,10.23
2017-03-20T02:09:50.375Z,10.25
2017-03-20T02:10:59.594Z,10.23
2017-03-20T02:12:08.845Z,10.23
2017-03-20T02:13:18.765Z,10.22
2017-03-20T02:14:28.969Z,10.25
2017-03-20T02:15:38.527Z,10.29
2017-03-20T02:16:47.425Z,10.3
2017-03-20T02:17:56.963Z,10.3
2017-03-20T02:19:06.011Z,10.22
2017-03-20T02:20:15.894Z,10.32
2017-03-20T02:21:24.789Z,10.22
2017-03-20T02:22:34.002Z,10.23
2017-03-20T02:23:43.553Z,10.33
2017-03-20T02:24:53.900Z,10.32
2017-03-20T02:26:03.453Z,10.29
2017-03-20T02:27:12.994Z,10.32
2017-03-20T02:28:22.538Z,10.34
2017-03-20T02:29:32.087Z,10.41
2017-03-20T02:30:41.351Z,10.29
2017-03-20T02:31:50.250Z,10.26
2017-03-20T02:32:59.474Z,10.33
2017-03-20T02:34:08.703Z,10.3
2017-03-20T02:35:17.920Z,10.38
2017-03-20T02:36:27.284Z,10.38
2017-03-20T02:37:36.194Z,10.41
2017-03-20T02:38:45.408Z,10.34
2017-03-20T02:39:54.960Z,10.44
2017-03-20T02:41:04.865Z,10.42
2017-03-20T02:42:14.234Z,10.45
2017-03-20T02:43:24.103Z,10.34
2017-03-20T02:44:33.646Z,10.38
2017-03-20T02:45:43.197Z,10.32
2017-03-20T02:46:52.736Z,10.34
2017-03-20T02:48:02.483Z,10.38
2017-03-20T02:49:12.029Z,10.34
2017-03-20T02:50:21.250Z,10.4
2017-03-20T02:51:30.469Z,10.41
2017-03-20T02:52:40.017Z,10.36
2017-03-20T02:53:49.719Z,10.42
2017-03-20T02:54:59.269Z,10.4
2017-03-20T02:56:08.811Z,10.41
2017-03-20T02:57:18.353Z,10.41
2017-03-20T02:58:27.587Z,10.38
2017-03-20T02:59:37.557Z,10.34
2017-03-20T03:00:46.776Z,10.38
2017-03-20T03:01:56.648Z,10.34
2017-03-20T03:03:05.870Z,10.32
2017-03-20T03:04:15.419Z,10.3
2017-03-20T03:05:24.690Z,10.26
2017-03-20T03:06:34.236Z,10.32
2017-03-20T03:07:43.784Z,10.34
2017-03-20T03:08:53.657Z,10.36
2017-03-20T03:10:03.204Z,10.26
2017-03-20T03:11:12.824Z,10.29
2017-03-20T03:12:21.716Z,10.33
2017-03-20T03:13:31.263Z,10.4
2017-03-20T03:14:41.507Z,10.25
2017-03-20T03:15:50.729Z,10.34
2017-03-20T03:16:59.718Z,10.33
2017-03-20T03:18:08.612Z,10.3
2017-03-20T03:19:18.158Z,10.33
2017-03-20T03:20:27.707Z,10.3
2017-03-20T03:21:36.921Z,10.33
2017-03-20T03:22:46.388Z,10.26
2017-03-20T03:23:55.934Z,10.29
2017-03-20T03:25:05.151Z,10.22
2017-03-20T03:26:14.041Z,10.33
2017-03-20T03:27:23.577Z,10.3
2017-03-20T03:28:33.545Z,10.3
2017-03-20T03:29:42.771Z,10.3
2017-03-20T03:30:51.997Z,10.25
2017-03-20T03:32:01.219Z,10.27
2017-03-20T03:33:11.125Z,10.23
2017-03-20T03:34:20.998Z,10.25
2017-03-20T03:35:30.873Z,10.25
2017-03-20T03:36:40.748Z,10.29
2017-03-20T03:37:49.969Z,10.32
2017-03-20T03:38:59.521Z,10.25
2017-03-20T03:40:09.470Z,10.23
2017-03-20T03:41:18.368Z,10.25
2017-03-20T03:42:27.584Z,10.25
2017-03-20T03:43:37.456Z,10.25
2017-03-20T03:44:47.327Z,10.29
2017-03-20T03:45:56.806Z,10.32
2017-03-20T03:47:06.021Z,10.27
2017-03-20T03:48:15.565Z,10.3
2017-03-20T03:49:25.436Z,10.29
2017-03-20T03:50:35.305Z,10.27
2017-03-20T03:51:44.774Z,10.38
2017-03-20T03:52:53.993Z,10.27
2017-03-20T03:54:03.214Z,10.34
2017-03-20T03:55:13.410Z,10.36
2017-03-20T03:56:22.625Z,10.32
2017-03-20T03:57:31.709Z,10.3
2017-03-20T03:58:42.234Z,10.33
2017-03-20T03:59:51.783Z,10.29
2017-03-20T04:01:01.652Z,10.33
2017-03-20T04:02:10.865Z,10.29
2017-03-20T04:03:20.831Z,10.32
2017-03-20T04:04:30.703Z,10.36
2017-03-20T04:05:39.915Z,10.38
2017-03-20T04:06:49.125Z,10.33
2017-03-20T04:07:58.343Z,10.33
2017-03-20T04:09:08.740Z,10.38
2017-03-20T04:10:18.930Z,10.4
2017-03-20T04:11:28.146Z,10.4
2017-03-20T04:12:37.360Z,10.41
2017-03-20T04:13:46.921Z,10.32
2017-03-20T04:14:56.840Z,10.36
2017-03-20T04:16:06.708Z,10.32
2017-03-20T04:17:15.599Z,10.32
2017-03-20T04:18:24.824Z,10.32
2017-03-20T04:19:34.369Z,10.36
2017-03-20T04:20:43.887Z,10.27
2017-03-20T04:21:52.775Z,10.32
2017-03-20T04:23:02.315Z,10.27
2017-03-20T04:24:11.218Z,10.33
2017-03-20T04:25:20.755Z,10.25
2017-03-20T04:26:30.452Z,10.25
2017-03-20T04:27:39.996Z,10.33
2017-03-20T04:28:48.906Z,10.32
2017-03-20T04:29:59.102Z,10.36
2017-03-20T04:31:08.320Z,10.22
2017-03-20T04:32:18.009Z,10.3
2017-03-20T04:33:27.230Z,10.3
2017-03-20T04:34:36.782Z,10.26
2017-03-20T04:35:45.673Z,10.27
2017-03-20T04:36:54.569Z,10.25
2017-03-20T04:38:04.479Z,10.23
2017-03-20T04:39:14.343Z,10.36
2017-03-20T04:40:24.535Z,10.3
2017-03-20T04:41:33.424Z,10.32
2017-03-20T04:42:43.291Z,10.3
2017-03-20T04:43:52.989Z,10.32
2017-03-20T04:45:02.214Z,10.25
2017-03-20T04:46:11.111Z,10.34
2017-03-20T04:47:20.982Z,10.25
2017-03-20T04:48:30.197Z,10.27
2017-03-20T04:49:39.890Z,10.33
2017-03-20T04:50:49.112Z,10.22
2017-03-20T04:51:57.999Z,10.25
2017-03-20T04:53:07.540Z,10.27
2017-03-20T04:54:17.089Z,10.25
2017-03-20T04:55:26.931Z,10.34
2017-03-20T04:56:36.146Z,10.36
2017-03-20T04:57:45.687Z,10.33
2017-03-20T04:58:54.584Z,10.29
2017-03-20T05:00:04.131Z,10.38
2017-03-20T05:01:13.169Z,10.27
2017-03-20T05:02:22.064Z,10.27
2017-03-20T05:03:31.334Z,10.25
2017-03-20T05:04:40.878Z,10.32
2017-03-20T05:05:50.102Z,10.3
2017-03-20T05:06:59.473Z,10.26
2017-03-20T05:08:08.698Z,10.26
2017-03-20T05:09:18.240Z,10.32
2017-03-20T05:10:27.463Z,10.3
2017-03-20T05:11:36.998Z,10.23
2017-03-20T05:12:46.366Z,10.25
2017-03-20T05:13:55.904Z,10.38
2017-03-20T05:15:05.776Z,10.32
2017-03-20T05:16:15.313Z,10.27
2017-03-20T05:17:24.855Z,10.3
2017-03-20T05:18:34.721Z,10.29
2017-03-20T05:19:44.258Z,10.25
2017-03-20T05:20:53.144Z,10.26
2017-03-20T05:22:02.370Z,10.29
2017-03-20T05:23:11.599Z,10.25
2017-03-20T05:24:21.300Z,10.33
2017-03-20T05:25:31.181Z,10.25
2017-03-20T05:26:40.395Z,10.22
2017-03-20T05:27:49.934Z,10.38
2017-03-20T05:28:59.807Z,10.3
2017-03-20T05:30:09.506Z,10.32
2017-03-20T05:31:19.043Z,10.3
2017-03-20T05:32:28.914Z,10.25
2017-03-20T05:33:38.132Z,10.32
2017-03-20T05:34:47.353Z,10.3
2017-03-20T05:35:57.046Z,10.32
2017-03-20T05:37:06.267Z,10.33
2017-03-20T05:38:15.805Z,10.33
2017-03-20T05:39:25.356Z,10.25
2017-03-20T05:40:34.906Z,10.26
2017-03-20T05:41:44.706Z,10.29
2017-03-20T05:42:53.923Z,10.29
2017-03-20T05:44:04.119Z,10.34
2017-03-20T05:45:13.661Z,10.25
2017-03-20T05:46:22.885Z,10.29
2017-03-20T05:47:31.921Z,10.27
2017-03-20T05:48:41.789Z,10.2
2017-03-20T05:49:51.984Z,10.33
2017-03-20T05:51:01.849Z,10.32
2017-03-20T05:52:11.065Z,10.3
2017-03-20T05:53:20.011Z,10.4
2017-03-20T05:54:30.207Z,10.33
2017-03-20T05:55:39.428Z,10.34
2017-03-20T05:56:48.317Z,10.32
2017-03-20T05:57:57.869Z,10.32
2017-03-20T05:59:07.563Z,10.34
2017-03-20T06:00:17.104Z,10.34
2017-03-20T06:01:25.990Z,10.34
2017-03-20T06:02:35.212Z,10.36
2017-03-20T06:03:45.083Z,10.38
2017-03-20T06:04:54.778Z,10.4
2017-03-20T06:06:04.000Z,10.34
2017-03-20T06:07:13.219Z,10.4
2017-03-20T06:08:23.740Z,10.42
2017-03-20T06:09:32.963Z,10.44
2017-03-20T06:10:42.481Z,10.38
2017-03-20T06:11:52.055Z,10.45
2017-03-20T06:13:00.949Z,10.45
2017-03-20T06:14:10.494Z,10.51
2017-03-20T06:15:19.710Z,10.44
2017-03-20T06:16:29.078Z,10.48
2017-03-20T06:17:38.623Z,10.41
2017-03-20T06:18:48.170Z,10.45
2017-03-20T06:19:58.360Z,10.44
2017-03-20T06:21:07.248Z,10.42
2017-03-20T06:22:17.211Z,10.33
2017-03-20T06:23:26.436Z,10.33
2017-03-20T06:24:36.309Z,10.44
2017-03-20T06:25:45.528Z,10.42
2017-03-20T06:26:54.455Z,10.47
2017-03-20T06:28:03.353Z,10.38
2017-03-20T06:29:12.899Z,10.34
2017-03-20T06:30:22.769Z,10.36
2017-03-20T06:31:31.982Z,10.44
2017-03-20T06:32:41.202Z,10.32
2017-03-20T06:33:50.422Z,10.44
2017-03-20T06:35:00.299Z,10.36
2017-03-20T06:36:09.189Z,10.34
2017-03-20T06:37:19.058Z,10.45
2017-03-20T06:38:28.277Z,10.33
2017-03-20T06:39:37.828Z,10.42
2017-03-20T06:40:47.048Z,10.44
2017-03-20T06:41:56.920Z,10.33
2017-03-20T06:43:06.797Z,10.47
2017-03-20T06:44:16.344Z,10.47
2017-03-20T06:45:26.538Z,10.47
2017-03-20T06:46:35.430Z,10.34
2017-03-20T06:47:44.970Z,10.38
2017-03-20T06:48:54.835Z,10.45
2017-03-20T06:50:04.055Z,10.44
2017-03-20T06:51:13.268Z,10.41
2017-03-20T06:52:22.494Z,10.51
2017-03-20T06:53:32.031Z,10.48
2017-03-20T06:54:41.898Z,10.51
2017-03-20T06:55:50.876Z,10.51
2017-03-20T06:56:59.787Z,10.45
2017-03-20T06:58:08.719Z,10.42
2017-03-20T06:59:18.085Z,10.56
2017-03-20T07:00:27.634Z,10.48
2017-03-20T07:01:36.531Z,10.53
2017-03-20T07:02:46.094Z,10.44
2017-03-20T07:03:55.962Z,10.53
2017-03-20T07:05:05.332Z,10.53
2017-03-20T07:06:14.234Z,10.52
2017-03-20T07:07:23.778Z,10.55
2017-03-20T07:08:32.998Z,10.48
2017-03-20T07:09:42.869Z,10.45
2017-03-20T07:10:52.787Z,10.52
2017-03-20T07:12:01.715Z,10.55
2017-03-20T07:13:10.934Z,10.52
2017-03-20T07:14:20.477Z,10.52
2017-03-20T07:15:30.353Z,10.53
2017-03-20T07:16:40.043Z,10.51
2017-03-20T07:17:49.271Z,10.51
2017-03-20T07:18:59.467Z,10.55
2017-03-20T07:20:09.338Z,10.52
2017-03-20T07:21:19.218Z,10.51
2017-03-20T07:22:28.270Z,10.53
2017-03-20T07:23:37.486Z,10.56
2017-03-20T07:24:46.376Z,10.45
2017-03-20T07:25:55.924Z,10.48
2017-03-20T07:27:04.830Z,10.52
2017-03-20T07:28:14.435Z,10.51
2017-03-20T07:29:24.306Z,10.51
2017-03-20T07:30:34.497Z,10.53
2017-03-20T07:31:43.387Z,10.51
2017-03-20T07:32:52.605Z,10.6
2017-03-20T07:34:02.404Z,10.51
2017-03-20T07:35:11.306Z,10.52
2017-03-20T07:36:20.859Z,10.48
2017-03-20T07:37:30.083Z,10.59
2017-03-20T07:38:39.312Z,10.48
2017-03-20T07:39:49.196Z,10.59
2017-03-20T07:40:58.438Z,10.66
2017-03-20T07:42:07.343Z,10.56
2017-03-20T07:43:16.243Z,10.61
2017-03-20T07:44:25.478Z,10.59
2017-03-20T07:45:34.848Z,10.64
2017-03-20T07:46:43.747Z,10.64
2017-03-20T07:47:52.646Z,10.59
2017-03-20T07:49:02.191Z,10.6
2017-03-20T07:50:11.736Z,10.52
2017-03-20T07:51:21.201Z,10.6
2017-03-20T07:52:30.089Z,10.67
2017-03-20T07:53:39.312Z,10.61
2017-03-20T07:54:48.446Z,10.66
2017-03-20T07:55:57.675Z,10.66
2017-03-20T07:57:07.239Z,10.66
2017-03-20T07:58:16.835Z,10.67
2017-03-20T07:59:26.385Z,10.61
2017-03-20T08:00:36.581Z,10.59
2017-03-20T08:01:45.796Z,10.6
2017-03-20T08:02:54.806Z,10.63
2017-03-20T08:04:04.055Z,10.61
2017-03-20T08:05:13.635Z,10.63
2017-03-20T08:06:22.853Z,10.64
2017-03-20T08:07:32.068Z,10.6
2017-03-20T08:08:41.337Z,10.61
2017-03-20T08:09:50.886Z,10.63
2017-03-20T08:11:00.106Z,10.66
2017-03-20T08:12:09.321Z,10.64
2017-03-20T08:13:18.862Z,10.64
2017-03-20T08:14:28.246Z,10.66
2017-03-20T08:15:37.470Z,10.64
2017-03-20T08:16:46.722Z,10.6
2017-03-20T08:17:56.262Z,10.64
2017-03-20T08:19:06.135Z,10.59
2017-03-20T08:20:15.771Z,10.64
2017-03-20T08:21:24.664Z,10.66
2017-03-20T08:22:34.552Z,10.59
2017-03-20T08:23:44.098Z,10.63
2017-03-20T08:24:54.011Z,10.56
2017-03-20T08:26:03.227Z,10.6
2017-03-20T08:27:12.441Z,10.59
2017-03-20T08:28:21.334Z,10.63
2017-03-20T08:29:31.206Z,10.64
2017-03-20T08:30:40.104Z,10.64
2017-03-20T08:31:49.773Z,10.56
2017-03-20T08:32:58.665Z,10.56
2017-03-20T08:34:08.212Z,10.66
2017-03-20T08:35:18.081Z,10.66
2017-03-20T08:36:27.620Z,10.56
2017-03-20T08:37:37.530Z,10.64
2017-03-20T08:38:46.751Z,10.66
2017-03-20T08:39:56.329Z,10.61
2017-03-20T08:41:06.202Z,10.67
2017-03-20T08:42:15.417Z,10.64
2017-03-20T08:43:25.219Z,10.71
2017-03-20T08:44:34.767Z,10.68
2017-03-20T08:45:44.006Z,10.66
2017-03-20T08:46:52.894Z,10.71
2017-03-20T08:48:02.444Z,10.68
2017-03-20T08:49:12.087Z,10.66
2017-03-20T08:50:21.965Z,10.7
2017-03-20T08:51:31.510Z,10.71
2017-03-20T08:52:41.050Z,10.71
2017-03-20T08:53:50.921Z,10.78
2017-03-20T08:55:00.523Z,10.79
2017-03-20T08:56:09.411Z,10.84
2017-03-20T08:57:18.299Z,10.85
2017-03-20T08:58:27.193Z,10.81
2017-03-20T08:59:37.061Z,10.94
2017-03-20T09:00:46.433Z,10.85
2017-03-20T09:01:55.320Z,10.96
2017-03-20T09:03:04.209Z,10.94
2017-03-20T09:04:13.754Z,10.92
2017-03-20T09:05:23.300Z,10.91
2017-03-20T09:06:32.443Z,10.82
2017-03-20T09:07:41.337Z,10.91
2017-03-20T09:08:50.886Z,10.86
2017-03-20T09:10:00.808Z,10.91
2017-03-20T09:11:09.698Z,10.91
2017-03-20T09:12:19.444Z,10.92
2017-03-20T09:13:28.341Z,10.94
2017-03-20T09:14:37.565Z,10.91
2017-03-20T09:15:47.765Z,11.02
2017-03-20T09:16:56.655Z,10.99
2017-03-20T09:18:06.038Z,11.04
2017-03-20T09:19:14.935Z,10.97
2017-03-20T09:20:24.155Z,11.06
2017-03-20T09:21:33.372Z,11.07
2017-03-20T09:22:43.585Z,11.03
2017-03-20T09:23:52.635Z,11.04
2017-03-20T09:25:01.536Z,11.07
2017-03-20T09:26:10.764Z,10.99
2017-03-20T09:27:20.005Z,11.09
2017-03-20T09:28:29.562Z,11.02
2017-03-20T09:29:39.579Z,11.07
2017-03-20T09:30:48.476Z,11
2017-03-20T09:31:57.697Z,10.97
2017-03-20T09:33:07.566Z,11.1
2017-03-20T09:34:17.439Z,11.14
2017-03-20T09:35:27.033Z,11.09
2017-03-20T09:36:35.930Z,11.18
2017-03-20T09:37:45.487Z,11.19
2017-03-20T09:38:54.714Z,11.19
2017-03-20T09:40:04.581Z,11.11
2017-03-20T09:41:13.473Z,11.07
2017-03-20T09:42:22.363Z,11.1
2017-03-20T09:43:31.256Z,11.19
2017-03-20T09:44:40.157Z,11.21
2017-03-20T09:45:49.693Z,11.27
2017-03-20T09:46:59.011Z,11.28
2017-03-20T09:48:08.232Z,11.21
2017-03-20T09:49:18.105Z,11.27
2017-03-20T09:50:27.649Z,11.21
2017-03-20T09:51:36.538Z,11.32
2017-03-20T09:52:46.071Z,11.19
2017-03-20T09:53:55.286Z,11.28
2017-03-20T09:55:04.507Z,11.33
2017-03-20T09:56:13.399Z,11.35
2017-03-20T09:57:22.944Z,11.35
2017-03-20T09:58:32.544Z,11.32
2017-03-20T09:59:41.445Z,11.39
2017-03-20T10:00:50.338Z,11.42
2017-03-20T10:01:59.558Z,11.39
2017-03-20T10:03:08.785Z,11.43
2017-03-20T10:04:18.479Z,11.47
2017-03-20T10:05:28.357Z,11.55
2017-03-20T10:06:37.251Z,11.51
2017-03-20T10:07:46.468Z,11.52
2017-03-20T10:08:56.015Z,11.65
2017-03-20T10:10:05.613Z,11.64
2017-03-20T10:11:14.837Z,11.65
2017-03-20T10:12:24.384Z,11.61
2017-03-20T10:13:33.276Z,11.58
2017-03-20T10:14:42.820Z,11.58
2017-03-20T10:15:52.410Z,11.6
2017-03-20T10:17:01.304Z,11.58
2017-03-20T10:18:10.849Z,11.64
2017-03-20T10:19:19.751Z,11.61
2017-03-20T10:20:28.969Z,11.67
2017-03-20T10:21:38.477Z,11.75
2017-03-20T10:22:48.354Z,11.76
2017-03-20T10:23:58.225Z,11.73
2017-03-20T10:25:07.124Z,11.75
2017-03-20T10:26:16.670Z,11.73
2017-03-20T10:27:25.990Z,11.76
2017-03-20T10:28:34.889Z,11.76
2017-03-20T10:29:44.437Z,11.73
2017-03-20T10:30:53.333Z,11.82
2017-03-20T10:32:02.550Z,11.79
2017-03-20T10:33:12.669Z,11.69
2017-03-20T10:34:22.871Z,11.72
2017-03-20T10:35:32.430Z,11.67
2017-03-20T10:36:41.323Z,11.72
2017-03-20T10:37:50.220Z,11.69
2017-03-20T10:39:00.245Z,11.72
2017-03-20T10:40:09.793Z,11.65
2017-03-20T10:41:19.664Z,11.72
2017-03-20T10:42:28.878Z,11.65
2017-03-20T10:43:38.424Z,11.58
2017-03-20T10:44:48.130Z,11.57
2017-03-20T10:45:57.345Z,11.8
2017-03-20T10:47:06.887Z,11.7
2017-03-20T10:48:16.113Z,11.69
2017-03-20T10:49:25.335Z,11.83
2017-03-20T10:50:34.704Z,11.73
2017-03-20T10:51:44.250Z,11.76
2017-03-20T10:52:53.475Z,11.83
2017-03-20T10:54:02.698Z,11.78
2017-03-20T10:55:11.916Z,11.76
2017-03-20T10:56:21.183Z,11.75
2017-03-20T10:57:30.076Z,11.79
2017-03-20T10:58:39.296Z,11.79
2017-03-20T10:59:49.497Z,11.79
2017-03-20T11:00:58.728Z,11.8
2017-03-20T11:02:07.778Z,11.75
2017-03-20T11:03:16.676Z,11.78
2017-03-20T11:04:26.555Z,11.7
2017-03-20T11:05:36.458Z,11.69
2017-03-20T11:06:45.360Z,11.7
2017-03-20T11:07:54.554Z,11.64
2017-03-20T11:09:04.435Z,11.73
2017-03-20T11:10:14.018Z,11.61
2017-03-20T11:11:23.558Z,11.58
2017-03-20T11:12:32.776Z,11.64
2017-03-20T11:13:42.154Z,11.57
2017-03-20T11:14:51.394Z,11.57
2017-03-20T11:16:00.937Z,11.52
2017-03-20T11:17:10.164Z,11.55
2017-03-20T11:18:19.389Z,11.54
2017-03-20T11:19:29.410Z,11.55
2017-03-20T11:20:38.305Z,11.51
2017-03-20T11:21:47.526Z,11.47
2017-03-20T11:22:57.089Z,11.51
2017-03-20T11:24:06.637Z,11.51
2017-03-20T11:25:16.015Z,11.44
2017-03-20T11:26:24.914Z,11.44
2017-03-20T11:27:34.453Z,11.43
2017-03-20T11:28:44.329Z,11.49
2017-03-20T11:29:53.553Z,11.49
2017-03-20T11:31:03.254Z,11.52
2017-03-20T11:32:12.142Z,11.58
2017-03-20T11:33:22.009Z,11.51
2017-03-20T11:34:31.558Z,11.51
2017-03-20T11:35:40.774Z,11.52
2017-03-20T11:36:50.136Z,11.54
2017-03-20T11:37:59.353Z,11.52
2017-03-20T11:39:08.244Z,11.55
2017-03-20T11:40:17.133Z,11.61
2017-03-20T11:41:26.354Z,11.55
2017-03-20T11:42:35.719Z,11.75
2017-03-20T11:43:45.260Z,11.67
2017-03-20T11:44:54.807Z,11.67
2017-03-20T11:46:04.362Z,11.61
2017-03-20T11:47:13.251Z,11.75
2017-03-20T11:48:22.943Z,11.79
2017-03-20T11:49:33.140Z,11.73
2017-03-20T11:50:42.357Z,11.76
2017-03-20T11:51:51.286Z,11.72
2017-03-20T11:53:00.183Z,11.82
2017-03-20T11:54:09.778Z,11.82
2017-03-20T11:55:19.975Z,11.69
2017-03-20T11:56:29.523Z,11.72
2017-03-20T11:57:38.417Z,11.69
2017-03-20T11:58:47.972Z,11.7
2017-03-20T11:59:57.667Z,11.79
2017-03-20T12:01:06.566Z,11.65
2017-03-20T12:02:15.454Z,11.64
2017-03-20T12:03:25.007Z,11.69
2017-03-20T12:04:34.550Z,11.76
2017-03-20T12:05:43.439Z,11.79
2017-03-20T12:06:52.341Z,11.79
2017-03-20T12:08:01.238Z,11.78
2017-03-20T12:09:10.787Z,11.86
2017-03-20T12:10:20.381Z,11.94
2017-03-20T12:11:29.278Z,11.94
2017-03-20T12:12:38.499Z,11.95
2017-03-20T12:13:48.041Z,11.95
2017-03-20T12:14:57.921Z,11.94
2017-03-20T12:16:07.239Z,12.02
2017-03-20T12:17:16.160Z,12.1
2017-03-20T12:18:25.706Z,12.12
2017-03-20T12:19:35.257Z,12.12
2017-03-20T12:20:45.133Z,12.1
2017-03-20T12:21:54.350Z,12.16
2017-03-20T12:23:03.568Z,12.05
2017-03-20T12:24:13.768Z,12.17
2017-03-20T12:25:22.987Z,12.23
2017-03-20T12:26:31.911Z,12.31
2017-03-20T12:27:41.283Z,12.14
2017-03-20T12:28:50.841Z,12.14
2017-03-20T12:30:00.711Z,12.23
2017-03-20T12:31:09.605Z,12.2
2017-03-20T12:32:18.502Z,12.21
2017-03-20T12:33:27.776Z,12.12
2017-03-20T12:34:36.993Z,12.14
2017-03-20T12:35:45.888Z,12.1
2017-03-20T12:36:55.110Z,12.09
2017-03-20T12:38:04.329Z,11.94
2017-03-20T12:39:13.525Z,11.73
2017-03-20T12:40:22.428Z,11.79
2017-03-20T12:41:31.319Z,11.76
2017-03-20T12:42:40.870Z,11.73
2017-03-20T12:43:51.062Z,11.83
2017-03-20T12:45:00.012Z,11.78
2017-03-20T12:46:09.231Z,11.78
2017-03-20T12:47:18.121Z,11.76
2017-03-20T12:48:27.339Z,11.64
2017-03-20T12:49:36.879Z,11.69
2017-03-20T12:50:46.572Z,11.67
2017-03-20T12:51:56.112Z,11.62
2017-03-20T12:53:05.331Z,11.58
2017-03-20T12:54:15.209Z,11.7
2017-03-20T12:55:24.424Z,11.65
2017-03-20T12:56:33.891Z,11.54
2017-03-20T12:57:42.783Z,11.57
2017-03-20T12:58:52.331Z,11.54
2017-03-20T13:00:01.884Z,11.51
2017-03-20T13:01:11.100Z,11.49
2017-03-20T13:02:20.250Z,11.49
2017-03-20T13:03:29.804Z,11.49
2017-03-20T13:04:39.022Z,11.55
2017-03-20T13:05:47.951Z,11.47
2017-03-20T13:06:56.842Z,11.49
2017-03-20T13:08:06.632Z,11.43
2017-03-20T13:09:16.187Z,11.43
2017-03-20T13:10:25.731Z,11.47
2017-03-20T13:11:34.626Z,11.43
2017-03-20T13:12:43.520Z,11.46
2017-03-20T13:13:52.915Z,11.46
2017-03-20T13:15:02.482Z,11.4
2017-03-20T13:16:11.660Z,11.4
2017-03-20T13:17:20.605Z,11.49
2017-03-20T13:18:30.149Z,11.43
2017-03-20T13:19:40.044Z,11.52
2017-03-20T13:20:49.300Z,11.52
2017-03-20T13:21:58.899Z,11.57
2017-03-20T13:23:07.792Z,11.47
2017-03-20T13:24:17.664Z,11.49
2017-03-20T13:25:27.690Z,11.37
2017-03-20T13:26:36.582Z,11.43
2017-03-20T13:27:45.522Z,11.25
2017-03-20T13:28:55.070Z,11.4
2017-03-20T13:30:03.968Z,11.37
2017-03-20T13:31:12.968Z,11.4
2017-03-20T13:32:21.897Z,11.39
2017-03-20T13:33:30.819Z,11.36
2017-03-20T13:34:40.362Z,11.4
2017-03-20T13:35:49.603Z,11.4
2017-03-20T13:36:58.924Z,11.37
2017-03-20T13:38:07.820Z,11.35
2017-03-20T13:39:17.366Z,11.37
2017-03-20T13:40:26.598Z,11.36
2017-03-20T13:41:35.818Z,11.44
2017-03-20T13:42:45.349Z,11.43
2017-03-20T13:43:55.241Z,11.46
2017-03-20T13:45:04.795Z,11.4
2017-03-20T13:46:13.712Z,11.43
2017-03-20T13:47:22.935Z,11.43
2017-03-20T13:48:31.979Z,11.4
2017-03-20T13:49:41.862Z,11.39
2017-03-20T13:50:50.753Z,11.46
2017-03-20T13:51:59.669Z,11.37
2017-03-20T13:53:08.891Z,11.42
2017-03-20T13:54:19.103Z,11.37
2017-03-20T13:55:28.322Z,11.37
2017-03-20T13:56:37.823Z,11.37
2017-03-20T13:57:47.727Z,11.46
2017-03-20T13:58:57.267Z,11.47
2017-03-20T14:00:06.858Z,11.51
2017-03-20T14:01:15.757Z,11.43
2017-03-20T14:02:24.642Z,11.49
2017-03-20T14:03:33.857Z,11.43
2017-03-20T14:04:44.095Z,11.52
2017-03-20T14:05:53.737Z,11.42
2017-03-20T14:07:03.291Z,11.55
2017-03-20T14:08:12.511Z,11.52
2017-03-20T14:09:22.054Z,11.49
2017-03-20T14:10:30.950Z,11.47
2017-03-20T14:11:40.267Z,11.57
2017-03-20T14:12:49.488Z,11.54
2017-03-20T14:13:59.035Z,11.47
2017-03-20T14:15:08.578Z,11.51
2017-03-20T14:16:17.793Z,11.52
2017-03-20T14:17:27.259Z,11.54
2017-03-20T14:18:36.800Z,11.52
2017-03-20T14:19:46.018Z,11.49
2017-03-20T14:20:54.912Z,11.43
2017-03-20T14:22:03.803Z,11.51
2017-03-20T14:23:12.995Z,11.46
2017-03-20T14:24:22.540Z,11.49
2017-03-20T14:25:32.083Z,11.49
2017-03-20T14:26:40.976Z,11.47
2017-03-20T14:27:49.874Z,11.51
2017-03-20T14:28:59.195Z,11.42
2017-03-20T14:30:08.414Z,11.57
2017-03-20T14:31:17.636Z,11.57
2017-03-20T14:32:26.532Z,11.54
2017-03-20T14:33:36.079Z,11.55
2017-03-20T14:34:45.357Z,11.55
2017-03-20T14:35:54.573Z,11.54
2017-03-20T14:37:03.480Z,11.6
2017-03-20T14:38:12.708Z,11.57
2017-03-20T14:39:22.576Z,11.6
2017-03-20T14:40:31.947Z,11.67
2017-03-20T14:41:40.847Z,11.72
2017-03-20T14:42:49.743Z,11.75
2017-03-20T14:43:59.292Z,11.78
2017-03-20T14:45:08.510Z,11.72
2017-03-20T14:46:17.719Z,11.73
2017-03-20T14:47:26.611Z,11.7
2017-03-20T14:48:35.846Z,11.75
2017-03-20T14:49:45.078Z,11.78
2017-03-20T14:50:54.300Z,11.75
2017-03-20T14:52:04.366Z,11.78
2017-03-20T14:53:13.987Z,11.75
2017-03-20T14:54:23.254Z,11.73
2017-03-20T14:55:32.804Z,11.7
2017-03-20T14:56:42.021Z,11.7